sensor_id;sensor_type;location;lat;lon;timestamp;P1;durP1;ratioP1;P2;durP2;ratioP2
20945;SDS011;10632;51.276;7.116;2022-08-20T00:00:48;15.52;;;6.43;;
20945;SDS011;10632;51.276;7.116;2022-08-20T00:03:21;18.92;;;7.25;;
20945;SDS011;10632;51.276;7.116;2022-08-20T00:05:55;17.58;;;6.80;;
20945;SDS011;10632;51.276;7.116;2022-08-20T00:08:29;17.42;;;7.05;;
20945;SDS011;10632;51.276;7.116;2022-08-20T00:10:58;17.27;;;6.78;;
20945;SDS011;10632;51.276;7.116;2022-08-20T00:13:28;15.68;;;6.43;;
20945;SDS011;10632;51.276;7.116;2022-08-20T00:16:00;21.92;;;7.38;;
20945;SDS011;10632;51.276;7.116;2022-08-20T00:18:30;19.00;;;8.10;;
20945;SDS011;10632;51.276;7.116;2022-08-20T00:21:02;20.35;;;8.65;;
20945;SDS011;10632;51.276;7.116;2022-08-20T00:23:32;24.58;;;9.02;;
20945;SDS011;10632;51.276;7.116;2022-08-20T00:26:00;18.38;;;7.25;;
20945;SDS011;10632;51.276;7.116;2022-08-20T00:28:27;22.77;;;8.55;;
20945;SDS011;10632;51.276;7.116;2022-08-20T00:30:54;18.33;;;8.18;;
20945;SDS011;10632;51.276;7.116;2022-08-20T00:33:22;20.58;;;8.98;;
20945;SDS011;10632;51.276;7.116;2022-08-20T00:35:52;22.42;;;8.85;;
20945;SDS011;10632;51.276;7.116;2022-08-20T00:38:21;19.48;;;8.68;;
20945;SDS011;10632;51.276;7.116;2022-08-20T00:40:50;21.10;;;8.93;;
20945;SDS011;10632;51.276;7.116;2022-08-20T00:43:28;20.92;;;8.60;;
20945;SDS011;10632;51.276;7.116;2022-08-20T00:45:58;21.90;;;9.32;;
20945;SDS011;10632;51.276;7.116;2022-08-20T00:48:29;19.02;;;8.60;;
20945;SDS011;10632;51.276;7.116;2022-08-20T00:51:00;21.88;;;9.32;;
20945;SDS011;10632;51.276;7.116;2022-08-20T00:53:34;22.90;;;9.30;;
20945;SDS011;10632;51.276;7.116;2022-08-20T00:56:02;22.35;;;9.27;;
20945;SDS011;10632;51.276;7.116;2022-08-20T00:58:31;22.35;;;9.98;;
20945;SDS011;10632;51.276;7.116;2022-08-20T01:01:02;20.92;;;9.05;;
20945;SDS011;10632;51.276;7.116;2022-08-20T01:03:38;22.33;;;9.30;;
20945;SDS011;10632;51.276;7.116;2022-08-20T01:06:06;20.50;;;8.57;;
20945;SDS011;10632;51.276;7.116;2022-08-20T01:08:36;24.70;;;9.52;;
20945;SDS011;10632;51.276;7.116;2022-08-20T01:11:05;23.20;;;9.07;;
20945;SDS011;10632;51.276;7.116;2022-08-20T01:13:41;19.65;;;9.02;;
20945;SDS011;10632;51.276;7.116;2022-08-20T01:16:13;25.75;;;9.38;;
20945;SDS011;10632;51.276;7.116;2022-08-20T01:18:46;21.75;;;9.13;;
20945;SDS011;10632;51.276;7.116;2022-08-20T01:21:14;25.77;;;9.73;;
20945;SDS011;10632;51.276;7.116;2022-08-20T01:23:51;20.42;;;9.13;;
20945;SDS011;10632;51.276;7.116;2022-08-20T01:26:24;23.02;;;9.57;;
20945;SDS011;10632;51.276;7.116;2022-08-20T01:28:55;17.92;;;8.23;;
20945;SDS011;10632;51.276;7.116;2022-08-20T01:31:24;26.02;;;9.95;;
20945;SDS011;10632;51.276;7.116;2022-08-20T01:33:53;28.30;;;10.95;;
20945;SDS011;10632;51.276;7.116;2022-08-20T01:36:24;22.55;;;9.07;;
20945;SDS011;10632;51.276;7.116;2022-08-20T01:38:54;17.73;;;7.82;;
20945;SDS011;10632;51.276;7.116;2022-08-20T01:41:24;21.67;;;8.70;;
20945;SDS011;10632;51.276;7.116;2022-08-20T01:43:59;22.58;;;9.57;;
20945;SDS011;10632;51.276;7.116;2022-08-20T01:46:27;22.50;;;9.20;;
20945;SDS011;10632;51.276;7.116;2022-08-20T01:48:57;26.75;;;10.40;;
20945;SDS011;10632;51.276;7.116;2022-08-20T01:51:28;20.98;;;8.98;;
20945;SDS011;10632;51.276;7.116;2022-08-20T01:53:56;21.60;;;8.45;;
20945;SDS011;10632;51.276;7.116;2022-08-20T01:56:30;19.30;;;8.10;;
20945;SDS011;10632;51.276;7.116;2022-08-20T01:58:59;23.77;;;8.90;;
20945;SDS011;10632;51.276;7.116;2022-08-20T02:01:31;21.33;;;8.25;;
20945;SDS011;10632;51.276;7.116;2022-08-20T02:04:01;24.30;;;9.43;;
20945;SDS011;10632;51.276;7.116;2022-08-20T02:06:31;22.50;;;8.63;;
20945;SDS011;10632;51.276;7.116;2022-08-20T02:09:01;17.92;;;7.53;;
20945;SDS011;10632;51.276;7.116;2022-08-20T02:11:31;19.65;;;7.63;;
20945;SDS011;10632;51.276;7.116;2022-08-20T02:14:01;18.77;;;7.10;;
20945;SDS011;10632;51.276;7.116;2022-08-20T02:16:30;21.13;;;7.75;;
20945;SDS011;10632;51.276;7.116;2022-08-20T02:19:01;19.05;;;6.65;;
20945;SDS011;10632;51.276;7.116;2022-08-20T02:21:33;16.83;;;7.00;;
20945;SDS011;10632;51.276;7.116;2022-08-20T02:24:03;18.02;;;7.22;;
20945;SDS011;10632;51.276;7.116;2022-08-20T02:26:32;20.67;;;7.40;;
20945;SDS011;10632;51.276;7.116;2022-08-20T02:29:04;16.05;;;6.25;;
20945;SDS011;10632;51.276;7.116;2022-08-20T02:31:33;20.73;;;8.40;;
20945;SDS011;10632;51.276;7.116;2022-08-20T02:34:01;19.67;;;7.45;;
20945;SDS011;10632;51.276;7.116;2022-08-20T02:36:29;16.88;;;7.47;;
20945;SDS011;10632;51.276;7.116;2022-08-20T02:38:56;18.88;;;7.28;;
20945;SDS011;10632;51.276;7.116;2022-08-20T02:41:23;16.17;;;6.45;;
20945;SDS011;10632;51.276;7.116;2022-08-20T02:43:51;20.08;;;7.43;;
20945;SDS011;10632;51.276;7.116;2022-08-20T02:46:18;19.23;;;8.35;;
20945;SDS011;10632;51.276;7.116;2022-08-20T02:48:48;20.58;;;6.97;;
20945;SDS011;10632;51.276;7.116;2022-08-20T02:51:15;17.23;;;7.28;;
20945;SDS011;10632;51.276;7.116;2022-08-20T02:53:42;18.30;;;7.25;;
20945;SDS011;10632;51.276;7.116;2022-08-20T02:56:09;16.88;;;6.90;;
20945;SDS011;10632;51.276;7.116;2022-08-20T02:58:37;18.45;;;7.30;;
20945;SDS011;10632;51.276;7.116;2022-08-20T03:01:12;17.42;;;6.50;;
20945;SDS011;10632;51.276;7.116;2022-08-20T03:03:41;18.85;;;7.28;;
20945;SDS011;10632;51.276;7.116;2022-08-20T03:06:09;25.10;;;8.77;;
20945;SDS011;10632;51.276;7.116;2022-08-20T03:08:37;20.02;;;6.95;;
20945;SDS011;10632;51.276;7.116;2022-08-20T03:11:05;21.67;;;7.70;;
20945;SDS011;10632;51.276;7.116;2022-08-20T03:13:33;19.08;;;7.13;;
20945;SDS011;10632;51.276;7.116;2022-08-20T03:16:01;18.88;;;7.55;;
20945;SDS011;10632;51.276;7.116;2022-08-20T03:18:30;20.52;;;8.23;;
20945;SDS011;10632;51.276;7.116;2022-08-20T03:20:59;20.27;;;8.63;;
20945;SDS011;10632;51.276;7.116;2022-08-20T03:23:26;19.10;;;7.85;;
20945;SDS011;10632;51.276;7.116;2022-08-20T03:25:53;23.33;;;7.22;;
20945;SDS011;10632;51.276;7.116;2022-08-20T03:28:20;22.92;;;8.20;;
20945;SDS011;10632;51.276;7.116;2022-08-20T03:30:47;17.90;;;7.40;;
20945;SDS011;10632;51.276;7.116;2022-08-20T03:33:15;18.52;;;6.82;;
20945;SDS011;10632;51.276;7.116;2022-08-20T03:35:45;24.58;;;8.50;;
20945;SDS011;10632;51.276;7.116;2022-08-20T03:38:13;22.27;;;8.38;;
20945;SDS011;10632;51.276;7.116;2022-08-20T03:40:42;18.15;;;6.88;;
20945;SDS011;10632;51.276;7.116;2022-08-20T03:43:09;19.45;;;8.45;;
20945;SDS011;10632;51.276;7.116;2022-08-20T03:45:37;21.30;;;8.60;;
20945;SDS011;10632;51.276;7.116;2022-08-20T03:48:06;21.27;;;7.32;;
20945;SDS011;10632;51.276;7.116;2022-08-20T03:50:35;21.63;;;8.35;;
20945;SDS011;10632;51.276;7.116;2022-08-20T03:53:07;18.25;;;7.18;;
20945;SDS011;10632;51.276;7.116;2022-08-20T03:55:34;22.05;;;7.05;;
20945;SDS011;10632;51.276;7.116;2022-08-20T03:58:02;16.52;;;6.13;;
20945;SDS011;10632;51.276;7.116;2022-08-20T04:00:31;21.65;;;7.78;;
20945;SDS011;10632;51.276;7.116;2022-08-20T04:03:00;16.02;;;6.15;;
20945;SDS011;10632;51.276;7.116;2022-08-20T04:05:31;21.02;;;7.30;;
20945;SDS011;10632;51.276;7.116;2022-08-20T04:07:59;24.83;;;8.85;;
20945;SDS011;10632;51.276;7.116;2022-08-20T04:10:28;25.75;;;10.15;;
20945;SDS011;10632;51.276;7.116;2022-08-20T04:12:56;23.77;;;9.07;;
20945;SDS011;10632;51.276;7.116;2022-08-20T04:15:23;21.00;;;8.40;;
20945;SDS011;10632;51.276;7.116;2022-08-20T04:17:50;23.30;;;8.15;;
20945;SDS011;10632;51.276;7.116;2022-08-20T04:20:19;23.85;;;8.27;;
20945;SDS011;10632;51.276;7.116;2022-08-20T04:22:50;26.23;;;9.20;;
20945;SDS011;10632;51.276;7.116;2022-08-20T04:25:17;22.88;;;9.02;;
20945;SDS011;10632;51.276;7.116;2022-08-20T04:27:47;25.88;;;9.43;;
20945;SDS011;10632;51.276;7.116;2022-08-20T04:30:16;23.00;;;8.82;;
20945;SDS011;10632;51.276;7.116;2022-08-20T04:32:44;23.73;;;9.75;;
20945;SDS011;10632;51.276;7.116;2022-08-20T04:35:13;23.90;;;9.00;;
20945;SDS011;10632;51.276;7.116;2022-08-20T04:37:42;24.73;;;9.07;;
20945;SDS011;10632;51.276;7.116;2022-08-20T04:40:12;24.80;;;10.00;;
20945;SDS011;10632;51.276;7.116;2022-08-20T04:43:00;35.40;;;10.50;;
20945;SDS011;10632;51.276;7.116;2022-08-20T04:45:28;22.92;;;8.02;;
20945;SDS011;10632;51.276;7.116;2022-08-20T04:47:56;23.40;;;8.38;;
20945;SDS011;10632;51.276;7.116;2022-08-20T04:50:30;21.90;;;7.57;;
20945;SDS011;10632;51.276;7.116;2022-08-20T04:52:59;17.75;;;6.65;;
20945;SDS011;10632;51.276;7.116;2022-08-20T04:55:26;18.60;;;7.18;;
20945;SDS011;10632;51.276;7.116;2022-08-20T04:57:53;20.52;;;6.85;;
20945;SDS011;10632;51.276;7.116;2022-08-20T05:00:23;21.10;;;7.20;;
20945;SDS011;10632;51.276;7.116;2022-08-20T05:02:50;17.52;;;6.78;;
20945;SDS011;10632;51.276;7.116;2022-08-20T05:05:17;14.27;;;6.15;;
20945;SDS011;10632;51.276;7.116;2022-08-20T05:07:46;19.77;;;6.78;;
20945;SDS011;10632;51.276;7.116;2022-08-20T05:10:15;17.38;;;6.00;;
20945;SDS011;10632;51.276;7.116;2022-08-20T05:12:43;21.52;;;7.50;;
20945;SDS011;10632;51.276;7.116;2022-08-20T05:15:11;18.77;;;7.28;;
20945;SDS011;10632;51.276;7.116;2022-08-20T05:17:40;16.55;;;6.53;;
20945;SDS011;10632;51.276;7.116;2022-08-20T05:20:09;19.65;;;7.43;;
20945;SDS011;10632;51.276;7.116;2022-08-20T05:22:38;16.65;;;5.47;;
20945;SDS011;10632;51.276;7.116;2022-08-20T05:25:05;15.10;;;6.07;;
20945;SDS011;10632;51.276;7.116;2022-08-20T05:27:33;22.05;;;7.63;;
20945;SDS011;10632;51.276;7.116;2022-08-20T05:30:02;17.70;;;6.40;;
20945;SDS011;10632;51.276;7.116;2022-08-20T05:32:32;16.20;;;6.65;;
20945;SDS011;10632;51.276;7.116;2022-08-20T05:35:01;14.90;;;4.85;;
20945;SDS011;10632;51.276;7.116;2022-08-20T05:37:30;14.07;;;5.55;;
20945;SDS011;10632;51.276;7.116;2022-08-20T05:39:57;15.23;;;5.78;;
20945;SDS011;10632;51.276;7.116;2022-08-20T05:42:23;12.38;;;5.10;;
20945;SDS011;10632;51.276;7.116;2022-08-20T05:44:53;13.43;;;5.47;;
20945;SDS011;10632;51.276;7.116;2022-08-20T05:47:22;17.52;;;6.00;;
20945;SDS011;10632;51.276;7.116;2022-08-20T05:49:52;13.43;;;5.70;;
20945;SDS011;10632;51.276;7.116;2022-08-20T05:52:20;12.45;;;4.65;;
20945;SDS011;10632;51.276;7.116;2022-08-20T05:54:47;14.85;;;6.07;;
20945;SDS011;10632;51.276;7.116;2022-08-20T05:57:15;14.10;;;6.10;;
20945;SDS011;10632;51.276;7.116;2022-08-20T05:59:43;16.48;;;6.03;;
20945;SDS011;10632;51.276;7.116;2022-08-20T06:02:10;16.58;;;5.70;;
20945;SDS011;10632;51.276;7.116;2022-08-20T06:04:51;15.00;;;5.60;;
20945;SDS011;10632;51.276;7.116;2022-08-20T06:07:17;12.63;;;5.53;;
20945;SDS011;10632;51.276;7.116;2022-08-20T06:09:46;12.48;;;5.28;;
20945;SDS011;10632;51.276;7.116;2022-08-20T06:12:13;13.02;;;5.15;;
20945;SDS011;10632;51.276;7.116;2022-08-20T06:14:40;9.80;;;4.55;;
20945;SDS011;10632;51.276;7.116;2022-08-20T06:17:08;10.88;;;4.15;;
20945;SDS011;10632;51.276;7.116;2022-08-20T06:19:37;15.77;;;5.20;;
20945;SDS011;10632;51.276;7.116;2022-08-20T06:22:04;14.45;;;5.40;;
20945;SDS011;10632;51.276;7.116;2022-08-20T06:24:35;11.85;;;4.88;;
20945;SDS011;10632;51.276;7.116;2022-08-20T06:27:03;12.98;;;5.63;;
20945;SDS011;10632;51.276;7.116;2022-08-20T06:29:31;14.35;;;5.90;;
20945;SDS011;10632;51.276;7.116;2022-08-20T06:32:01;14.45;;;5.32;;
20945;SDS011;10632;51.276;7.116;2022-08-20T06:34:28;14.10;;;5.78;;
20945;SDS011;10632;51.276;7.116;2022-08-20T06:36:55;20.27;;;6.53;;
20945;SDS011;10632;51.276;7.116;2022-08-20T06:39:23;15.80;;;6.13;;
20945;SDS011;10632;51.276;7.116;2022-08-20T06:41:50;15.63;;;5.93;;
20945;SDS011;10632;51.276;7.116;2022-08-20T06:44:21;14.77;;;5.95;;
20945;SDS011;10632;51.276;7.116;2022-08-20T06:46:48;18.80;;;6.25;;
20945;SDS011;10632;51.276;7.116;2022-08-20T06:49:15;17.27;;;6.47;;
20945;SDS011;10632;51.276;7.116;2022-08-20T06:51:43;16.20;;;6.25;;
20945;SDS011;10632;51.276;7.116;2022-08-20T06:54:10;15.13;;;5.93;;
20945;SDS011;10632;51.276;7.116;2022-08-20T06:56:37;15.20;;;6.05;;
20945;SDS011;10632;51.276;7.116;2022-08-20T06:59:04;13.52;;;5.03;;
20945;SDS011;10632;51.276;7.116;2022-08-20T07:01:34;18.00;;;7.35;;
20945;SDS011;10632;51.276;7.116;2022-08-20T07:04:01;20.27;;;6.95;;
20945;SDS011;10632;51.276;7.116;2022-08-20T07:06:29;15.38;;;6.18;;
20945;SDS011;10632;51.276;7.116;2022-08-20T07:08:56;15.43;;;6.50;;
20945;SDS011;10632;51.276;7.116;2022-08-20T07:11:23;19.02;;;7.10;;
20945;SDS011;10632;51.276;7.116;2022-08-20T07:13:52;13.52;;;5.93;;
20945;SDS011;10632;51.276;7.116;2022-08-20T07:16:20;13.63;;;5.57;;
20945;SDS011;10632;51.276;7.116;2022-08-20T07:18:48;16.55;;;6.00;;
20945;SDS011;10632;51.276;7.116;2022-08-20T07:21:15;13.50;;;6.43;;
20945;SDS011;10632;51.276;7.116;2022-08-20T07:23:42;14.18;;;5.47;;
20945;SDS011;10632;51.276;7.116;2022-08-20T07:26:10;13.63;;;5.78;;
20945;SDS011;10632;51.276;7.116;2022-08-20T07:28:37;14.23;;;6.00;;
20945;SDS011;10632;51.276;7.116;2022-08-20T07:33:32;18.65;;;7.68;;
20945;SDS011;10632;51.276;7.116;2022-08-20T07:36:01;16.80;;;6.78;;
20945;SDS011;10632;51.276;7.116;2022-08-20T07:38:29;19.00;;;7.20;;
20945;SDS011;10632;51.276;7.116;2022-08-20T07:40:57;29.35;;;9.30;;
20945;SDS011;10632;51.276;7.116;2022-08-20T07:43:25;24.45;;;9.20;;
20945;SDS011;10632;51.276;7.116;2022-08-20T07:45:56;26.83;;;9.00;;
20945;SDS011;10632;51.276;7.116;2022-08-20T07:48:25;23.05;;;9.25;;
20945;SDS011;10632;51.276;7.116;2022-08-20T07:50:53;32.22;;;11.10;;
20945;SDS011;10632;51.276;7.116;2022-08-20T07:53:22;38.25;;;11.40;;
20945;SDS011;10632;51.276;7.116;2022-08-20T07:55:49;33.58;;;11.73;;
20945;SDS011;10632;51.276;7.116;2022-08-20T07:58:19;38.63;;;13.30;;
20945;SDS011;10632;51.276;7.116;2022-08-20T08:00:48;36.45;;;12.40;;
20945;SDS011;10632;51.276;7.116;2022-08-20T08:03:15;36.63;;;13.10;;
20945;SDS011;10632;51.276;7.116;2022-08-20T08:05:43;36.08;;;11.90;;
20945;SDS011;10632;51.276;7.116;2022-08-20T08:08:19;35.88;;;12.70;;
20945;SDS011;10632;51.276;7.116;2022-08-20T08:10:51;38.40;;;12.98;;
20945;SDS011;10632;51.276;7.116;2022-08-20T08:13:27;35.47;;;12.32;;
20945;SDS011;10632;51.276;7.116;2022-08-20T08:16:00;39.35;;;12.75;;
20945;SDS011;10632;51.276;7.116;2022-08-20T08:18:28;37.55;;;12.23;;
20945;SDS011;10632;51.276;7.116;2022-08-20T08:21:07;39.10;;;13.25;;
20945;SDS011;10632;51.276;7.116;2022-08-20T08:23:38;36.03;;;12.57;;
20945;SDS011;10632;51.276;7.116;2022-08-20T08:26:09;40.13;;;12.73;;
20945;SDS011;10632;51.276;7.116;2022-08-20T08:28:36;42.05;;;13.75;;
20945;SDS011;10632;51.276;7.116;2022-08-20T08:31:03;35.80;;;12.90;;
20945;SDS011;10632;51.276;7.116;2022-08-20T08:33:31;42.42;;;13.00;;
20945;SDS011;10632;51.276;7.116;2022-08-20T08:36:05;43.38;;;12.85;;
20945;SDS011;10632;51.276;7.116;2022-08-20T08:38:34;42.50;;;12.32;;
20945;SDS011;10632;51.276;7.116;2022-08-20T08:41:10;39.22;;;12.00;;
20945;SDS011;10632;51.276;7.116;2022-08-20T08:43:41;37.55;;;11.68;;
20945;SDS011;10632;51.276;7.116;2022-08-20T08:46:11;34.78;;;11.85;;
20945;SDS011;10632;51.276;7.116;2022-08-20T08:48:41;35.58;;;11.93;;
20945;SDS011;10632;51.276;7.116;2022-08-20T08:51:14;35.00;;;12.10;;
20945;SDS011;10632;51.276;7.116;2022-08-20T08:53:48;32.03;;;11.00;;
20945;SDS011;10632;51.276;7.116;2022-08-20T08:56:18;29.52;;;11.05;;
20945;SDS011;10632;51.276;7.116;2022-08-20T08:58:48;32.90;;;10.65;;
20945;SDS011;10632;51.276;7.116;2022-08-20T09:01:17;34.78;;;11.57;;
20945;SDS011;10632;51.276;7.116;2022-08-20T09:03:49;32.60;;;11.32;;
20945;SDS011;10632;51.276;7.116;2022-08-20T09:06:18;31.85;;;11.25;;
20945;SDS011;10632;51.276;7.116;2022-08-20T09:08:50;29.98;;;11.02;;
20945;SDS011;10632;51.276;7.116;2022-08-20T09:11:19;31.15;;;10.45;;
20945;SDS011;10632;51.276;7.116;2022-08-20T09:13:47;33.85;;;11.38;;
20945;SDS011;10632;51.276;7.116;2022-08-20T09:16:16;31.98;;;10.40;;
20945;SDS011;10632;51.276;7.116;2022-08-20T09:18:43;37.13;;;11.05;;
20945;SDS011;10632;51.276;7.116;2022-08-20T09:21:09;35.00;;;10.38;;
20945;SDS011;10632;51.276;7.116;2022-08-20T09:23:38;32.22;;;10.30;;
20945;SDS011;10632;51.276;7.116;2022-08-20T09:26:06;31.20;;;9.98;;
20945;SDS011;10632;51.276;7.116;2022-08-20T09:28:34;33.72;;;10.75;;
20945;SDS011;10632;51.276;7.116;2022-08-20T09:31:02;36.35;;;11.50;;
20945;SDS011;10632;51.276;7.116;2022-08-20T09:33:31;35.58;;;11.40;;
20945;SDS011;10632;51.276;7.116;2022-08-20T09:35:58;34.55;;;9.73;;
20945;SDS011;10632;51.276;7.116;2022-08-20T09:38:25;32.35;;;10.48;;
20945;SDS011;10632;51.276;7.116;2022-08-20T09:40:52;32.50;;;10.38;;
20945;SDS011;10632;51.276;7.116;2022-08-20T09:43:22;27.95;;;9.32;;
20945;SDS011;10632;51.276;7.116;2022-08-20T09:45:49;41.30;;;11.40;;
20945;SDS011;10632;51.276;7.116;2022-08-20T09:48:16;30.88;;;10.77;;
20945;SDS011;10632;51.276;7.116;2022-08-20T09:50:45;30.00;;;9.85;;
20945;SDS011;10632;51.276;7.116;2022-08-20T09:53:13;29.73;;;9.68;;
20945;SDS011;10632;51.276;7.116;2022-08-20T09:55:42;30.50;;;10.00;;
20945;SDS011;10632;51.276;7.116;2022-08-20T09:58:14;29.85;;;9.45;;
20945;SDS011;10632;51.276;7.116;2022-08-20T10:00:49;33.58;;;9.85;;
20945;SDS011;10632;51.276;7.116;2022-08-20T10:03:16;36.65;;;10.40;;
20945;SDS011;10632;51.276;7.116;2022-08-20T10:05:44;30.50;;;9.57;;
20945;SDS011;10632;51.276;7.116;2022-08-20T10:08:11;35.42;;;9.77;;
20945;SDS011;10632;51.276;7.116;2022-08-20T10:10:38;26.13;;;8.95;;
20945;SDS011;10632;51.276;7.116;2022-08-20T10:13:05;27.48;;;9.48;;
20945;SDS011;10632;51.276;7.116;2022-08-20T10:15:32;24.77;;;9.07;;
20945;SDS011;10632;51.276;7.116;2022-08-20T10:18:02;33.47;;;10.07;;
20945;SDS011;10632;51.276;7.116;2022-08-20T10:20:32;29.88;;;9.10;;
20945;SDS011;10632;51.276;7.116;2022-08-20T10:23:00;25.00;;;9.13;;
20945;SDS011;10632;51.276;7.116;2022-08-20T10:25:27;33.67;;;10.23;;
20945;SDS011;10632;51.276;7.116;2022-08-20T10:27:54;35.00;;;10.18;;
20945;SDS011;10632;51.276;7.116;2022-08-20T10:30:21;24.60;;;8.95;;
20945;SDS011;10632;51.276;7.116;2022-08-20T10:32:48;29.23;;;9.70;;
20945;SDS011;10632;51.276;7.116;2022-08-20T10:35:16;28.50;;;8.60;;
20945;SDS011;10632;51.276;7.116;2022-08-20T10:37:43;28.73;;;8.48;;
20945;SDS011;10632;51.276;7.116;2022-08-20T10:40:11;23.15;;;7.60;;
20945;SDS011;10632;51.276;7.116;2022-08-20T10:42:39;25.85;;;8.27;;
20945;SDS011;10632;51.276;7.116;2022-08-20T10:45:06;21.10;;;7.55;;
20945;SDS011;10632;51.276;7.116;2022-08-20T10:47:34;19.80;;;7.43;;
20945;SDS011;10632;51.276;7.116;2022-08-20T10:50:02;22.90;;;8.02;;
20945;SDS011;10632;51.276;7.116;2022-08-20T10:52:32;18.50;;;7.28;;
20945;SDS011;10632;51.276;7.116;2022-08-20T10:54:59;17.23;;;6.93;;
20945;SDS011;10632;51.276;7.116;2022-08-20T10:57:29;20.52;;;7.68;;
20945;SDS011;10632;51.276;7.116;2022-08-20T10:59:58;20.17;;;7.40;;
20945;SDS011;10632;51.276;7.116;2022-08-20T11:02:26;19.52;;;7.45;;
20945;SDS011;10632;51.276;7.116;2022-08-20T11:04:54;26.80;;;7.78;;
20945;SDS011;10632;51.276;7.116;2022-08-20T11:07:23;23.67;;;7.38;;
20945;SDS011;10632;51.276;7.116;2022-08-20T11:09:55;20.42;;;7.32;;
20945;SDS011;10632;51.276;7.116;2022-08-20T11:12:23;25.92;;;7.63;;
20945;SDS011;10632;51.276;7.116;2022-08-20T11:14:50;22.13;;;8.20;;
20945;SDS011;10632;51.276;7.116;2022-08-20T11:17:19;22.83;;;7.25;;
20945;SDS011;10632;51.276;7.116;2022-08-20T11:19:47;24.17;;;8.32;;
20945;SDS011;10632;51.276;7.116;2022-08-20T11:22:15;24.55;;;8.15;;
20945;SDS011;10632;51.276;7.116;2022-08-20T11:24:42;23.48;;;7.53;;
20945;SDS011;10632;51.276;7.116;2022-08-20T11:27:15;20.58;;;7.97;;
20945;SDS011;10632;51.276;7.116;2022-08-20T11:29:46;24.05;;;7.60;;
20945;SDS011;10632;51.276;7.116;2022-08-20T11:32:14;21.27;;;7.70;;
20945;SDS011;10632;51.276;7.116;2022-08-20T11:34:41;22.45;;;6.93;;
20945;SDS011;10632;51.276;7.116;2022-08-20T11:37:08;23.30;;;7.68;;
20945;SDS011;10632;51.276;7.116;2022-08-20T11:39:35;20.13;;;7.93;;
20945;SDS011;10632;51.276;7.116;2022-08-20T11:42:05;20.48;;;7.43;;
20945;SDS011;10632;51.276;7.116;2022-08-20T11:44:33;21.60;;;8.02;;
20945;SDS011;10632;51.276;7.116;2022-08-20T11:47:00;22.98;;;7.55;;
20945;SDS011;10632;51.276;7.116;2022-08-20T11:49:29;21.88;;;7.55;;
20945;SDS011;10632;51.276;7.116;2022-08-20T11:51:56;21.98;;;7.95;;
20945;SDS011;10632;51.276;7.116;2022-08-20T11:54:23;18.58;;;6.80;;
20945;SDS011;10632;51.276;7.116;2022-08-20T11:56:52;15.27;;;6.80;;
20945;SDS011;10632;51.276;7.116;2022-08-20T11:59:20;17.90;;;6.60;;
20945;SDS011;10632;51.276;7.116;2022-08-20T12:01:51;18.73;;;6.82;;
20945;SDS011;10632;51.276;7.116;2022-08-20T12:04:19;19.40;;;7.13;;
20945;SDS011;10632;51.276;7.116;2022-08-20T12:06:46;17.48;;;6.05;;
20945;SDS011;10632;51.276;7.116;2022-08-20T12:09:13;17.23;;;6.47;;
20945;SDS011;10632;51.276;7.116;2022-08-20T12:11:41;19.08;;;7.03;;
20945;SDS011;10632;51.276;7.116;2022-08-20T12:14:08;19.27;;;7.30;;
20945;SDS011;10632;51.276;7.116;2022-08-20T12:16:35;15.43;;;6.32;;
20945;SDS011;10632;51.276;7.116;2022-08-20T12:19:04;18.80;;;6.22;;
20945;SDS011;10632;51.276;7.116;2022-08-20T12:21:31;14.10;;;5.50;;
20945;SDS011;10632;51.276;7.116;2022-08-20T12:23:58;16.27;;;6.60;;
20945;SDS011;10632;51.276;7.116;2022-08-20T12:26:24;18.30;;;6.90;;
20945;SDS011;10632;51.276;7.116;2022-08-20T12:28:51;14.70;;;5.95;;
20945;SDS011;10632;51.276;7.116;2022-08-20T12:31:19;17.40;;;6.28;;
20945;SDS011;10632;51.276;7.116;2022-08-20T12:33:46;18.08;;;6.30;;
20945;SDS011;10632;51.276;7.116;2022-08-20T12:36:14;14.63;;;6.25;;
20945;SDS011;10632;51.276;7.116;2022-08-20T12:38:41;17.80;;;5.97;;
20945;SDS011;10632;51.276;7.116;2022-08-20T12:41:08;16.17;;;5.97;;
20945;SDS011;10632;51.276;7.116;2022-08-20T12:43:38;15.23;;;5.65;;
20945;SDS011;10632;51.276;7.116;2022-08-20T12:46:05;16.13;;;6.38;;
20945;SDS011;10632;51.276;7.116;2022-08-20T12:48:32;15.60;;;5.60;;
20945;SDS011;10632;51.276;7.116;2022-08-20T12:50:58;16.17;;;6.85;;
20945;SDS011;10632;51.276;7.116;2022-08-20T12:53:27;15.98;;;6.07;;
20945;SDS011;10632;51.276;7.116;2022-08-20T12:55:54;14.65;;;5.90;;
20945;SDS011;10632;51.276;7.116;2022-08-20T12:58:21;13.45;;;5.60;;
20945;SDS011;10632;51.276;7.116;2022-08-20T13:00:47;15.43;;;5.40;;
20945;SDS011;10632;51.276;7.116;2022-08-20T13:03:14;15.77;;;5.50;;
20945;SDS011;10632;51.276;7.116;2022-08-20T13:05:41;13.30;;;5.35;;
20945;SDS011;10632;51.276;7.116;2022-08-20T13:08:09;16.30;;;5.70;;
20945;SDS011;10632;51.276;7.116;2022-08-20T13:10:39;13.93;;;5.45;;
20945;SDS011;10632;51.276;7.116;2022-08-20T13:13:09;18.75;;;5.82;;
20945;SDS011;10632;51.276;7.116;2022-08-20T13:15:36;14.02;;;6.20;;
20945;SDS011;10632;51.276;7.116;2022-08-20T13:18:04;13.98;;;6.10;;
20945;SDS011;10632;51.276;7.116;2022-08-20T13:20:31;12.18;;;4.60;;
20945;SDS011;10632;51.276;7.116;2022-08-20T13:22:58;11.45;;;5.38;;
20945;SDS011;10632;51.276;7.116;2022-08-20T13:25:25;10.10;;;4.80;;
20945;SDS011;10632;51.276;7.116;2022-08-20T13:27:56;12.30;;;5.25;;
20945;SDS011;10632;51.276;7.116;2022-08-20T13:30:24;10.65;;;5.30;;
20945;SDS011;10632;51.276;7.116;2022-08-20T13:32:52;10.68;;;4.65;;
20945;SDS011;10632;51.276;7.116;2022-08-20T13:35:19;13.15;;;4.53;;
20945;SDS011;10632;51.276;7.116;2022-08-20T13:37:46;13.23;;;5.00;;
20945;SDS011;10632;51.276;7.116;2022-08-20T13:40:14;12.25;;;5.18;;
20945;SDS011;10632;51.276;7.116;2022-08-20T13:42:41;12.27;;;4.88;;
20945;SDS011;10632;51.276;7.116;2022-08-20T13:45:09;12.93;;;5.63;;
20945;SDS011;10632;51.276;7.116;2022-08-20T13:47:37;15.27;;;5.43;;
20945;SDS011;10632;51.276;7.116;2022-08-20T13:50:06;12.32;;;5.97;;
20945;SDS011;10632;51.276;7.116;2022-08-20T13:52:35;14.02;;;5.78;;
20945;SDS011;10632;51.276;7.116;2022-08-20T13:55:04;14.57;;;4.93;;
20945;SDS011;10632;51.276;7.116;2022-08-20T13:57:32;12.13;;;5.88;;
20945;SDS011;10632;51.276;7.116;2022-08-20T13:59:59;12.57;;;6.10;;
20945;SDS011;10632;51.276;7.116;2022-08-20T14:02:27;12.38;;;5.80;;
20945;SDS011;10632;51.276;7.116;2022-08-20T14:04:54;10.85;;;5.47;;
20945;SDS011;10632;51.276;7.116;2022-08-20T14:07:22;11.57;;;5.95;;
20945;SDS011;10632;51.276;7.116;2022-08-20T14:09:51;13.82;;;6.00;;
20945;SDS011;10632;51.276;7.116;2022-08-20T14:12:21;13.75;;;5.80;;
20945;SDS011;10632;51.276;7.116;2022-08-20T14:14:49;17.58;;;5.70;;
20945;SDS011;10632;51.276;7.116;2022-08-20T14:17:17;12.18;;;5.25;;
20945;SDS011;10632;51.276;7.116;2022-08-20T14:19:48;12.88;;;5.60;;
20945;SDS011;10632;51.276;7.116;2022-08-20T14:22:16;12.82;;;5.75;;
20945;SDS011;10632;51.276;7.116;2022-08-20T14:24:44;11.05;;;5.32;;
20945;SDS011;10632;51.276;7.116;2022-08-20T14:27:12;13.07;;;5.47;;
20945;SDS011;10632;51.276;7.116;2022-08-20T14:29:41;12.57;;;4.97;;
20945;SDS011;10632;51.276;7.116;2022-08-20T14:32:09;15.40;;;5.63;;
20945;SDS011;10632;51.276;7.116;2022-08-20T14:34:37;12.45;;;5.22;;
20945;SDS011;10632;51.276;7.116;2022-08-20T14:37:13;13.38;;;5.40;;
20945;SDS011;10632;51.276;7.116;2022-08-20T14:39:42;13.35;;;5.43;;
20945;SDS011;10632;51.276;7.116;2022-08-20T14:42:10;11.18;;;5.15;;
20945;SDS011;10632;51.276;7.116;2022-08-20T14:44:38;10.85;;;5.40;;